Etusivu
METAR-TAF:

METAR-TAF

Lentoasemat :

Kolding, Tanska

Vamdrup

Leveyspiiri: 55-26N, Pituuspiiri: 009-20E, korkeus merenpinnasta: 44 m

Tämänhetkinen sää

Tämä raportti tehtiin 17 minuuttia sitten, kello 01.50 UTC
Tuuli 5 kn lounaasta
Lämpötila 2°C
Kosteus 93%
Ilmanpaine 1008 hPa

METAR: EKVD 250150Z AUTO 22005KT //// ///////// 02/01 Q1008

Aika: 03:07 (02:07 UTC)

Sääennuste

Tämä raportti tehtiin 14 tuntia ja 8 minuuttia sitten, kello 11.59 UTC
Ennuste voimassa 24. päivästä klo 12 UTC - 24. päivään klo 17 UTC
Tuuli 6 kn etelästä
Näkyvyys 10 km tai enemmän
Hajanaisia pilviä 2000 ft:n korkeudessa
Ajoittain
24. päivästä klo 12 UTC - 24. päivään klo 17 UTC
Hajanaisia pilviä 1200 ft:n korkeudessa
Hajanaisia pilviä 2000 ft:n korkeudessa, Cumulonimbus.
vesikuuroja

TAF: EKVD 241159Z 2412/2417 19006KT 9999 SCT020 TEMPO 2412/2417 SHRA SCT012 SCT020CB

Säähavainnot ja -ennusteet yli 4000 lentoasemalta (METAR- ja TAF-raportit).

Käytössä olevat sääasemat on merkitty karttaan keltaisilla ja punaisilla pisteillä.

Aseta hiiri pisteen päälle nähdäksesi sääaseman nimen.

Klikkaa sitten nähdäksesi säähavainnot ja -ennusteet.

Kartan vaihtaminen: klikkaa mustalla rastilla varustettuja vihreitä pisteitä, niin voit zoomata sisään; viivalla varustettua vihreää pistettä, niin voit zoomata ulos tai vihreitä nuolia, niin pääset viereisille kartoille.


METAR-TAF: